RJNG(METAR)
05/30 17:00
METAR RJNG 300800Z 22006KT 9999 FEW030 BKN250 26/11 Q1018 RMK 1CU030
A3006=
戻る
トップページへ戻る
IMOC Co,.Ltd.